createdAt,value
2023-04-09T00:01:35.490Z,15.07
2023-04-09T00:04:02.394Z,16.92
2023-04-09T00:06:29.341Z,21.08
2023-04-09T00:08:56.252Z,16.30
2023-04-09T00:11:23.057Z,13.55
2023-04-09T00:13:49.821Z,13.60
2023-04-09T00:16:16.695Z,17.33
2023-04-09T00:18:43.473Z,10.65
2023-04-09T00:21:10.652Z,12.60
2023-04-09T00:23:37.416Z,12.18
2023-04-09T00:26:04.340Z,16.60
2023-04-09T00:28:31.457Z,20.17
2023-04-09T00:30:58.257Z,14.98
2023-04-09T00:33:25.762Z,13.70
2023-04-09T00:35:52.804Z,14.82
2023-04-09T00:38:19.563Z,17.10
2023-04-09T00:40:50.746Z,17.25
2023-04-09T00:43:18.296Z,15.82
2023-04-09T00:45:45.609Z,15.75
2023-04-09T00:48:16.691Z,12.13
2023-04-09T00:50:43.721Z,13.00
2023-04-09T00:53:12.263Z,11.98
2023-04-09T00:55:41.518Z,16.55
2023-04-09T00:58:08.654Z,19.10
2023-04-09T01:00:35.693Z,16.02
2023-04-09T01:03:03.800Z,14.73
2023-04-09T01:05:45.856Z,16.63
2023-04-09T01:08:18.606Z,17.10
2023-04-09T01:11:07.147Z,16.67
2023-04-09T01:13:59.897Z,21.80
2023-04-09T01:16:29.187Z,28.38
2023-04-09T01:19:04.534Z,16.85
2023-04-09T01:21:33.795Z,16.88
2023-04-09T01:24:20.830Z,15.55
2023-04-09T01:26:58.346Z,13.65
2023-04-09T01:29:26.100Z,15.00
2023-04-09T01:31:55.680Z,15.57
2023-04-09T01:34:22.754Z,10.52
2023-04-09T01:36:54.366Z,13.27
2023-04-09T01:39:21.815Z,11.07
2023-04-09T01:41:50.319Z,13.77
2023-04-09T01:44:18.459Z,15.98
2023-04-09T01:46:47.531Z,13.35
2023-04-09T01:49:16.088Z,13.02
2023-04-09T01:51:43.613Z,12.50
2023-04-09T01:54:10.529Z,14.48
2023-04-09T01:56:45.354Z,10.48
2023-04-09T01:59:12.329Z,11.85
2023-04-09T02:02:06.275Z,16.80
2023-04-09T02:04:41.072Z,13.27
2023-04-09T02:07:18.845Z,12.48
2023-04-09T02:09:47.848Z,11.50
2023-04-09T02:12:18.224Z,12.27
2023-04-09T02:14:51.199Z,10.88
2023-04-09T02:17:18.766Z,13.90
2023-04-09T02:19:47.268Z,10.65
2023-04-09T02:22:15.324Z,21.70
2023-04-09T02:24:42.351Z,17.42
2023-04-09T02:27:09.571Z,14.20
2023-04-09T02:29:36.470Z,14.40
2023-04-09T02:32:03.317Z,10.60
2023-04-09T02:34:30.273Z,15.00
2023-04-09T02:36:57.099Z,9.07
2023-04-09T02:39:23.908Z,13.25
2023-04-09T02:41:50.674Z,12.00
2023-04-09T02:44:17.476Z,14.65
2023-04-09T02:46:46.482Z,13.05
2023-04-09T02:49:13.274Z,9.40
2023-04-09T02:51:40.044Z,16.08
2023-04-09T02:54:06.840Z,10.18
2023-04-09T02:56:33.647Z,16.75
2023-04-09T02:59:00.535Z,10.55
2023-04-09T03:01:27.378Z,13.27
2023-04-09T03:03:54.270Z,16.67
2023-04-09T03:06:21.263Z,16.30
2023-04-09T03:08:48.058Z,14.80
2023-04-09T03:11:15.866Z,15.00
2023-04-09T03:13:42.735Z,15.35
2023-04-09T03:16:10.407Z,11.98
2023-04-09T03:18:37.515Z,13.48
2023-04-09T03:21:08.374Z,16.63
2023-04-09T03:23:35.688Z,14.05
2023-04-09T03:26:06.411Z,11.15
2023-04-09T03:28:33.648Z,9.98
2023-04-09T03:31:00.747Z,13.38
2023-04-09T03:33:27.606Z,12.00
2023-04-09T03:35:54.544Z,12.30
2023-04-09T03:38:21.368Z,14.30
2023-04-09T03:40:48.266Z,11.50
2023-04-09T03:43:15.065Z,25.70
2023-04-09T03:45:41.940Z,20.88
2023-04-09T03:48:08.782Z,8.57
2023-04-09T03:50:42.166Z,15.25
2023-04-09T03:53:09.108Z,10.63
2023-04-09T03:55:37.424Z,17.33
2023-04-09T03:58:04.247Z,19.60
2023-04-09T04:00:31.021Z,13.90
2023-04-09T04:02:58.149Z,25.02
2023-04-09T04:05:26.311Z,71.00
2023-04-09T04:07:53.176Z,22.10
2023-04-09T04:10:20.110Z,39.85
2023-04-09T04:12:47.127Z,28.20
2023-04-09T04:15:14.163Z,40.40
2023-04-09T04:17:40.973Z,26.98
2023-04-09T04:20:08.459Z,30.73
2023-04-09T04:22:35.863Z,38.80
2023-04-09T04:25:03.816Z,44.17
2023-04-09T04:27:30.832Z,39.17
2023-04-09T04:29:58.990Z,35.25
2023-04-09T04:32:26.467Z,42.72
2023-04-09T04:34:53.290Z,37.40
2023-04-09T04:37:20.486Z,32.38
2023-04-09T04:39:47.291Z,21.92
2023-04-09T04:42:14.147Z,20.20
2023-04-09T04:44:40.998Z,22.63
2023-04-09T04:47:07.826Z,15.05
2023-04-09T04:49:34.668Z,13.05
2023-04-09T04:52:01.638Z,14.98
2023-04-09T04:54:28.391Z,13.38
2023-04-09T04:56:56.195Z,10.88
2023-04-09T04:59:23.152Z,13.57
2023-04-09T05:01:50.170Z,15.27
2023-04-09T05:04:16.960Z,15.55
2023-04-09T05:06:43.770Z,14.80
2023-04-09T05:09:10.524Z,12.95
2023-04-09T05:11:37.438Z,13.48
2023-04-09T05:14:06.159Z,13.02
2023-04-09T05:16:33.339Z,13.85
2023-04-09T05:19:00.371Z,12.95
2023-04-09T05:21:27.678Z,13.82
2023-04-09T05:23:54.580Z,14.73
2023-04-09T05:26:21.805Z,11.38
2023-04-09T05:28:48.919Z,15.00
2023-04-09T05:31:16.156Z,12.07
2023-04-09T05:33:43.201Z,13.25
2023-04-09T05:36:18.526Z,14.05
2023-04-09T05:38:47.313Z,14.55
2023-04-09T05:41:14.222Z,14.57
2023-04-09T05:43:42.776Z,11.93
2023-04-09T05:46:09.679Z,13.98
2023-04-09T05:48:36.916Z,12.80
2023-04-09T05:51:04.115Z,15.75
2023-04-09T05:53:32.430Z,16.77
2023-04-09T05:55:59.341Z,10.38
2023-04-09T05:58:26.217Z,12.57
2023-04-09T06:00:53.017Z,14.02
2023-04-09T06:03:20.684Z,12.13
2023-04-09T06:05:48.474Z,13.25
2023-04-09T06:08:15.369Z,12.35
2023-04-09T06:10:42.225Z,14.43
2023-04-09T06:13:10.517Z,13.10
2023-04-09T06:15:38.967Z,13.95
2023-04-09T06:18:05.753Z,12.27
2023-04-09T06:20:32.604Z,15.05
2023-04-09T06:22:59.447Z,14.25
2023-04-09T06:25:26.249Z,10.05
2023-04-09T06:27:53.032Z,8.60
2023-04-09T06:30:19.924Z,10.90
2023-04-09T06:32:54.351Z,12.27
2023-04-09T06:35:22.070Z,14.23
2023-04-09T06:37:48.902Z,11.20
2023-04-09T06:40:15.703Z,11.70
2023-04-09T06:42:42.483Z,10.60
2023-04-09T06:45:15.913Z,15.00
2023-04-09T06:47:50.448Z,11.52
2023-04-09T06:50:17.318Z,14.70
2023-04-09T06:52:44.060Z,12.68
2023-04-09T06:55:11.593Z,15.27
2023-04-09T06:57:39.279Z,12.63
2023-04-09T07:00:06.992Z,19.90
2023-04-09T07:02:34.368Z,16.20
2023-04-09T07:05:01.660Z,18.38
2023-04-09T07:07:28.457Z,16.15
2023-04-09T07:09:55.617Z,20.67
2023-04-09T07:12:33.437Z,15.32
2023-04-09T07:15:01.736Z,14.57
2023-04-09T07:17:28.827Z,15.27
2023-04-09T07:19:55.601Z,17.38
2023-04-09T07:22:23.743Z,13.05
2023-04-09T07:24:54.969Z,15.77
2023-04-09T07:27:26.467Z,13.73
2023-04-09T07:30:00.055Z,16.17
2023-04-09T07:32:30.821Z,13.35
2023-04-09T07:34:59.549Z,11.65
2023-04-09T07:37:27.215Z,15.27
2023-04-09T07:39:54.017Z,16.33
2023-04-09T07:42:20.835Z,12.82
2023-04-09T07:44:47.721Z,11.23
2023-04-09T07:47:14.958Z,14.07
2023-04-09T07:49:42.089Z,10.88
2023-04-09T07:52:08.966Z,10.05
2023-04-09T07:54:36.061Z,10.57
2023-04-09T07:57:03.389Z,12.02
2023-04-09T07:59:31.598Z,12.40
2023-04-09T08:01:58.776Z,10.55
2023-04-09T08:04:25.894Z,12.98
2023-04-09T08:06:53.702Z,10.85
2023-04-09T08:09:21.258Z,12.30
2023-04-09T08:11:49.228Z,14.85
2023-04-09T08:14:17.084Z,13.50
2023-04-09T08:16:47.298Z,13.55
2023-04-09T08:19:16.710Z,12.40
2023-04-09T08:21:44.202Z,10.32
2023-04-09T08:24:12.078Z,10.23
2023-04-09T08:26:40.049Z,10.50
2023-04-09T08:29:07.818Z,12.57
2023-04-09T08:31:35.316Z,14.93
2023-04-09T08:34:02.468Z,11.45
2023-04-09T08:36:29.399Z,9.38
2023-04-09T08:38:56.708Z,8.13
2023-04-09T08:41:25.459Z,10.52
2023-04-09T08:43:58.232Z,7.55
2023-04-09T08:46:27.258Z,7.40
2023-04-09T08:48:54.726Z,10.23
2023-04-09T08:51:23.958Z,10.27
2023-04-09T08:53:58.544Z,10.88
2023-04-09T08:56:26.666Z,11.67
2023-04-09T08:58:55.305Z,9.90
2023-04-09T09:01:24.454Z,11.15
2023-04-09T09:04:05.180Z,5.60
2023-04-09T09:06:39.323Z,9.57
2023-04-09T09:09:12.043Z,10.45
2023-04-09T09:11:41.829Z,13.10
2023-04-09T09:14:14.036Z,12.10
2023-04-09T09:16:43.904Z,9.32
2023-04-09T09:19:30.367Z,6.28
2023-04-09T09:21:58.006Z,6.72
2023-04-09T09:24:24.830Z,9.45
2023-04-09T09:26:54.525Z,5.47
2023-04-09T09:29:21.898Z,10.18
2023-04-09T09:31:51.103Z,8.13
2023-04-09T09:34:19.503Z,5.35
2023-04-09T09:36:47.406Z,7.07
2023-04-09T09:39:17.391Z,7.90
2023-04-09T09:41:46.570Z,9.70
2023-04-09T09:44:32.433Z,5.30
2023-04-09T09:46:59.940Z,8.63
2023-04-09T09:49:26.764Z,9.18
2023-04-09T09:51:56.859Z,5.57
2023-04-09T09:54:27.297Z,12.52
2023-04-09T09:56:58.256Z,7.45
2023-04-09T09:59:32.267Z,7.03
2023-04-09T10:02:06.339Z,13.68
2023-04-09T10:04:36.862Z,9.68
2023-04-09T10:07:05.939Z,8.60
2023-04-09T10:09:36.065Z,6.57
2023-04-09T10:12:06.943Z,6.32
2023-04-09T10:14:36.295Z,7.30
2023-04-09T10:17:04.372Z,8.68
2023-04-09T10:19:39.859Z,6.65
2023-04-09T10:22:12.019Z,5.95
2023-04-09T10:24:38.974Z,6.25
2023-04-09T10:27:18.380Z,9.15
2023-04-09T10:29:49.135Z,8.68
2023-04-09T10:32:26.476Z,7.10
2023-04-09T10:34:57.541Z,7.88
2023-04-09T10:37:28.809Z,5.45
2023-04-09T10:39:58.023Z,8.57
2023-04-09T10:42:32.843Z,7.50
2023-04-09T10:45:14.247Z,6.23
2023-04-09T10:47:43.672Z,7.68
2023-04-09T10:50:25.791Z,8.52
2023-04-09T10:52:54.671Z,6.85
2023-04-09T10:55:31.553Z,7.10
2023-04-09T10:57:58.938Z,6.95
2023-04-09T11:00:25.784Z,7.72
2023-04-09T11:03:22.779Z,6.03
2023-04-09T11:05:56.780Z,6.90
2023-04-09T11:08:24.278Z,11.65
2023-04-09T11:10:53.476Z,7.32
2023-04-09T11:13:21.872Z,6.18
2023-04-09T11:15:51.703Z,6.85
2023-04-09T11:18:30.282Z,7.00
2023-04-09T11:21:02.263Z,6.70
2023-04-09T11:23:29.154Z,12.07
2023-04-09T11:25:57.836Z,7.47
2023-04-09T11:28:24.990Z,10.95
2023-04-09T11:30:54.947Z,6.82
2023-04-09T11:33:32.791Z,6.70
2023-04-09T11:35:59.657Z,8.32
2023-04-09T11:38:26.486Z,9.50
2023-04-09T11:40:57.799Z,8.02
2023-04-09T11:43:25.042Z,11.13
2023-04-09T11:45:52.761Z,9.32
2023-04-09T11:48:21.738Z,8.18
2023-04-09T11:50:49.039Z,9.63
2023-04-09T11:53:31.088Z,7.30
2023-04-09T11:56:00.796Z,6.60
2023-04-09T11:58:28.034Z,9.15
2023-04-09T12:01:00.925Z,9.93
2023-04-09T12:03:33.292Z,15.55
2023-04-09T12:06:02.782Z,5.45
2023-04-09T12:08:31.333Z,9.75
2023-04-09T12:11:09.122Z,10.13
2023-04-09T12:13:36.230Z,10.30
2023-04-09T12:16:05.742Z,11.95
2023-04-09T12:18:36.540Z,7.90
2023-04-09T12:21:03.456Z,5.35
2023-04-09T12:23:31.540Z,7.22
2023-04-09T12:26:02.474Z,12.05
2023-04-09T12:28:29.410Z,6.50
2023-04-09T12:30:56.828Z,7.32
2023-04-09T12:33:23.664Z,11.43
2023-04-09T12:35:52.552Z,9.38
2023-04-09T12:38:19.434Z,6.35
2023-04-09T12:40:46.806Z,6.60
2023-04-09T12:43:13.667Z,7.45
2023-04-09T12:45:40.505Z,8.52
2023-04-09T12:48:13.565Z,8.43
2023-04-09T12:50:40.528Z,11.57
2023-04-09T12:53:07.371Z,10.70
2023-04-09T12:55:34.333Z,6.20
2023-04-09T12:58:02.697Z,8.98
2023-04-09T13:00:31.408Z,5.25
2023-04-09T13:02:58.516Z,6.28
2023-04-09T13:05:36.319Z,6.45
2023-04-09T13:08:03.927Z,10.88
2023-04-09T13:10:31.426Z,8.30
2023-04-09T13:12:58.241Z,9.30
2023-04-09T13:15:25.194Z,8.90
2023-04-09T13:17:52.022Z,6.43
2023-04-09T13:20:19.189Z,6.35
2023-04-09T13:22:49.323Z,9.02
2023-04-09T13:25:16.729Z,6.50
2023-04-09T13:27:43.817Z,8.93
2023-04-09T13:30:10.911Z,6.53
2023-04-09T13:32:37.985Z,8.23
2023-04-09T13:35:06.228Z,6.45
2023-04-09T13:37:33.058Z,9.75
2023-04-09T13:39:59.891Z,9.30
2023-04-09T13:42:27.787Z,11.38
2023-04-09T13:44:55.517Z,9.32
2023-04-09T13:47:28.275Z,13.63
2023-04-09T13:49:55.146Z,9.43
2023-04-09T13:52:21.963Z,10.40
2023-04-09T13:54:49.502Z,15.73
2023-04-09T13:57:19.642Z,9.77
2023-04-09T13:59:46.870Z,13.45
2023-04-09T14:02:14.068Z,15.35
2023-04-09T14:04:41.175Z,11.98
2023-04-09T14:07:08.420Z,17.67
2023-04-09T14:09:35.290Z,16.25
2023-04-09T14:12:02.296Z,9.35
2023-04-09T14:14:29.256Z,13.38
2023-04-09T14:16:56.041Z,14.15
2023-04-09T14:19:23.266Z,15.57
2023-04-09T14:21:53.212Z,18.02
2023-04-09T14:24:23.051Z,13.20
2023-04-09T14:26:53.615Z,10.02
2023-04-09T14:29:22.147Z,9.73
2023-04-09T14:31:49.081Z,12.63
2023-04-09T14:34:15.904Z,10.77
2023-04-09T14:36:42.735Z,12.43
2023-04-09T14:39:09.681Z,12.50
2023-04-09T14:41:36.745Z,14.57
2023-04-09T14:44:03.683Z,12.70
2023-04-09T14:46:30.474Z,10.85
2023-04-09T14:48:57.272Z,13.00
2023-04-09T14:51:24.232Z,13.45
2023-04-09T14:53:51.030Z,10.70
2023-04-09T14:56:17.876Z,13.52
2023-04-09T14:58:44.654Z,8.48
2023-04-09T15:01:11.538Z,9.88
2023-04-09T15:03:38.503Z,8.63
2023-04-09T15:06:05.681Z,7.82
2023-04-09T15:08:32.499Z,7.97
2023-04-09T15:11:04.072Z,8.43
2023-04-09T15:13:30.890Z,10.02
2023-04-09T15:16:00.641Z,13.77
2023-04-09T15:18:27.466Z,10.63
2023-04-09T15:20:56.543Z,9.05
2023-04-09T15:23:23.414Z,10.70
2023-04-09T15:25:50.673Z,10.45
2023-04-09T15:28:17.446Z,10.93
2023-04-09T15:30:44.548Z,14.13
2023-04-09T15:33:12.441Z,13.55
2023-04-09T15:35:39.266Z,15.60
2023-04-09T15:38:06.204Z,12.77
2023-04-09T15:40:33.459Z,12.30
2023-04-09T15:43:00.270Z,14.25
2023-04-09T15:45:27.215Z,16.30
2023-04-09T15:47:54.477Z,13.35
2023-04-09T15:50:21.446Z,16.80
2023-04-09T15:52:48.876Z,13.80
2023-04-09T15:55:16.005Z,15.75
2023-04-09T15:57:46.789Z,18.58
2023-04-09T16:00:14.039Z,16.23
2023-04-09T16:02:41.067Z,15.23
2023-04-09T16:05:08.085Z,14.00
2023-04-09T16:07:34.908Z,17.95
2023-04-09T16:10:02.101Z,19.30
2023-04-09T16:12:28.864Z,16.27
2023-04-09T16:14:55.634Z,15.05
2023-04-09T16:17:22.665Z,14.45
2023-04-09T16:19:49.459Z,14.57
2023-04-09T16:22:16.710Z,17.25
2023-04-09T16:24:43.922Z,14.57
2023-04-09T16:27:11.076Z,15.32
2023-04-09T16:29:37.897Z,18.98
2023-04-09T16:32:04.923Z,18.60
2023-04-09T16:34:32.102Z,18.98
2023-04-09T16:36:58.953Z,20.42
2023-04-09T16:39:25.739Z,16.55
2023-04-09T16:41:52.579Z,16.08
2023-04-09T16:44:19.517Z,17.75
2023-04-09T16:46:46.388Z,17.48
2023-04-09T16:49:13.195Z,20.00
2023-04-09T16:51:40.033Z,17.92
2023-04-09T16:54:06.942Z,24.40
2023-04-09T16:56:33.886Z,19.98
2023-04-09T16:59:00.742Z,24.90
2023-04-09T17:01:27.877Z,24.60
2023-04-09T17:03:55.999Z,25.70
2023-04-09T17:06:22.868Z,27.10
2023-04-09T17:08:49.732Z,28.42
2023-04-09T17:11:17.427Z,21.13
2023-04-09T17:13:44.350Z,22.67
2023-04-09T17:16:11.911Z,19.60
2023-04-09T17:18:39.098Z,19.85
2023-04-09T17:21:06.845Z,21.90
2023-04-09T17:23:33.634Z,21.40
2023-04-09T17:26:02.766Z,19.83
2023-04-09T17:28:29.706Z,19.85
2023-04-09T17:30:56.606Z,22.30
2023-04-09T17:33:23.427Z,20.27
2023-04-09T17:35:50.941Z,21.45
2023-04-09T17:38:21.314Z,20.95
2023-04-09T17:40:48.434Z,20.92
2023-04-09T17:43:15.689Z,23.30
2023-04-09T17:45:42.631Z,22.92
2023-04-09T17:48:11.768Z,24.73
2023-04-09T17:50:39.115Z,22.48
2023-04-09T17:53:05.915Z,25.83
2023-04-09T17:55:37.006Z,22.27
2023-04-09T17:58:04.227Z,28.20
2023-04-09T18:00:31.662Z,25.10
2023-04-09T18:02:58.850Z,24.67
2023-04-09T18:05:31.855Z,23.30
2023-04-09T18:07:59.667Z,30.02
2023-04-09T18:10:27.115Z,32.88
2023-04-09T18:13:00.844Z,31.33
2023-04-09T18:15:28.896Z,27.58
2023-04-09T18:17:59.242Z,28.92
2023-04-09T18:20:35.981Z,29.40
2023-04-09T18:23:11.926Z,27.90
2023-04-09T18:28:08.198Z,27.77
2023-04-09T18:30:38.776Z,28.00
2023-04-09T18:33:05.670Z,28.58
2023-04-09T18:35:32.523Z,24.48
2023-04-09T18:37:59.464Z,30.05
2023-04-09T18:40:26.287Z,27.48
2023-04-09T18:42:53.280Z,28.48
2023-04-09T18:45:20.296Z,28.88
2023-04-09T18:47:47.143Z,29.52
2023-04-09T18:50:18.664Z,26.65
2023-04-09T18:52:45.686Z,26.25
2023-04-09T18:55:13.710Z,30.38
2023-04-09T18:57:43.063Z,26.27
2023-04-09T19:00:10.771Z,23.35
2023-04-09T19:02:37.769Z,21.25
2023-04-09T19:05:07.083Z,23.42
2023-04-09T19:07:34.953Z,21.17
2023-04-09T19:10:01.887Z,24.00
2023-04-09T19:12:28.749Z,21.25
2023-04-09T19:14:55.640Z,18.63
2023-04-09T19:17:22.713Z,23.75
2023-04-09T19:19:49.559Z,21.95
2023-04-09T19:22:16.591Z,20.60
2023-04-09T19:24:46.406Z,23.58
2023-04-09T19:27:14.119Z,21.27
2023-04-09T19:29:41.041Z,27.65
2023-04-09T19:32:09.301Z,29.77
2023-04-09T19:34:36.193Z,27.48
2023-04-09T19:37:02.949Z,28.67
2023-04-09T19:39:29.759Z,25.70
2023-04-09T19:41:57.272Z,29.30
2023-04-09T19:44:24.155Z,31.90
2023-04-09T19:46:51.102Z,29.35
2023-04-09T19:49:17.866Z,30.98
2023-04-09T19:51:44.612Z,32.40
2023-04-09T19:54:11.672Z,35.55
2023-04-09T19:56:38.446Z,30.92
2023-04-09T19:59:05.314Z,34.00
2023-04-09T20:01:32.469Z,33.80
2023-04-09T20:03:59.786Z,37.25
2023-04-09T20:06:27.249Z,42.95
2023-04-09T20:08:54.759Z,36.08
2023-04-09T20:11:21.787Z,42.80
2023-04-09T20:13:48.865Z,44.95
2023-04-09T20:16:16.139Z,45.58
2023-04-09T20:18:42.925Z,42.40
2023-04-09T20:21:14.055Z,40.83
2023-04-09T20:23:41.112Z,37.40
2023-04-09T20:26:15.497Z,35.83
2023-04-09T20:28:42.569Z,33.75
2023-04-09T20:31:09.420Z,37.17
2023-04-09T20:33:36.287Z,29.13
2023-04-09T20:36:15.219Z,35.53
2023-04-09T20:38:47.971Z,35.13
2023-04-09T20:41:16.606Z,36.28
2023-04-09T20:43:43.422Z,30.83
2023-04-09T20:46:10.624Z,33.88
2023-04-09T20:48:38.372Z,31.75
2023-04-09T20:51:11.909Z,37.78
2023-04-09T20:53:39.191Z,38.47
2023-04-09T20:56:06.313Z,34.60
2023-04-09T20:58:36.750Z,33.92
2023-04-09T21:01:09.671Z,34.70
2023-04-09T21:03:38.043Z,35.75
2023-04-09T21:06:06.017Z,37.83
2023-04-09T21:08:32.931Z,35.67
2023-04-09T21:10:59.818Z,34.67
2023-04-09T21:13:29.548Z,37.88
2023-04-09T21:15:57.717Z,36.40
2023-04-09T21:18:24.591Z,37.17
2023-04-09T21:20:51.552Z,33.58
2023-04-09T21:23:18.369Z,41.83
2023-04-09T21:25:45.205Z,41.13
2023-04-09T21:28:12.212Z,39.75
2023-04-09T21:30:39.118Z,37.88
2023-04-09T21:33:07.596Z,40.22
2023-04-09T21:35:35.672Z,40.15
2023-04-09T21:38:03.197Z,35.05
2023-04-09T21:40:30.868Z,37.53
2023-04-09T21:42:57.979Z,41.65
2023-04-09T21:45:24.907Z,41.95
2023-04-09T21:47:51.812Z,40.35
2023-04-09T21:50:18.901Z,43.35
2023-04-09T21:52:47.315Z,45.97
2023-04-09T21:55:14.243Z,42.00
2023-04-09T21:57:41.258Z,43.83
2023-04-09T22:00:10.524Z,49.00
2023-04-09T22:02:39.235Z,39.72
2023-04-09T22:05:06.718Z,41.50
2023-04-09T22:07:33.696Z,45.15
2023-04-09T22:10:00.775Z,40.78
2023-04-09T22:12:27.594Z,49.95
2023-04-09T22:14:54.614Z,44.67
2023-04-09T22:17:21.494Z,43.85
2023-04-09T22:19:50.971Z,38.78
2023-04-09T22:22:17.890Z,38.88
2023-04-09T22:24:44.888Z,36.65
2023-04-09T22:27:12.094Z,40.38
2023-04-09T22:29:38.926Z,35.78
2023-04-09T22:32:05.687Z,33.97
2023-04-09T22:34:32.473Z,32.15
2023-04-09T22:36:59.372Z,35.88
2023-04-09T22:39:26.268Z,35.15
2023-04-09T22:41:53.527Z,37.05
2023-04-09T22:44:20.518Z,37.53
2023-04-09T22:46:47.472Z,36.55
2023-04-09T22:49:14.334Z,40.40
2023-04-09T22:51:41.874Z,39.55
2023-04-09T22:54:09.513Z,33.88
2023-04-09T22:56:36.762Z,36.25
2023-04-09T22:59:03.737Z,37.53
2023-04-09T23:01:32.701Z,40.45
2023-04-09T23:03:59.546Z,36.42
2023-04-09T23:06:26.382Z,39.20
2023-04-09T23:08:53.423Z,48.63
2023-04-09T23:11:21.216Z,39.78
2023-04-09T23:13:48.164Z,43.22
2023-04-09T23:16:15.463Z,47.42
2023-04-09T23:18:42.264Z,45.72
2023-04-09T23:21:10.664Z,45.60
2023-04-09T23:23:38.826Z,43.38
2023-04-09T23:26:06.283Z,48.38
2023-04-09T23:28:33.303Z,43.70
2023-04-09T23:31:00.554Z,51.97
2023-04-09T23:33:27.479Z,48.63
2023-04-09T23:35:54.316Z,48.17
2023-04-09T23:38:21.305Z,48.22
2023-04-09T23:40:49.131Z,44.50
2023-04-09T23:43:16.064Z,52.17
2023-04-09T23:45:44.174Z,51.65
2023-04-09T23:48:12.329Z,55.90
2023-04-09T23:50:40.812Z,46.25
2023-04-09T23:53:08.075Z,48.47
2023-04-09T23:55:40.796Z,43.30
2023-04-09T23:58:07.985Z,38.03
